sensor_id;sensor_type;location;lat;lon;timestamp;P1;durP1;ratioP1;P2;durP2;ratioP2
19554;SDS011;9924;50.828;6.440;2023-09-07T00:00:42;9.93;;;5.93;;
19554;SDS011;9924;50.828;6.440;2023-09-07T00:03:07;11.05;;;6.13;;
19554;SDS011;9924;50.828;6.440;2023-09-07T00:05:33;9.35;;;6.10;;
19554;SDS011;9924;50.828;6.440;2023-09-07T00:07:59;8.82;;;5.72;;
19554;SDS011;9924;50.828;6.440;2023-09-07T00:10:25;10.52;;;6.22;;
19554;SDS011;9924;50.828;6.440;2023-09-07T00:12:51;9.20;;;6.35;;
19554;SDS011;9924;50.828;6.440;2023-09-07T00:15:17;8.10;;;5.68;;
19554;SDS011;9924;50.828;6.440;2023-09-07T00:17:46;11.65;;;6.07;;
19554;SDS011;9924;50.828;6.440;2023-09-07T00:20:12;7.45;;;5.65;;
19554;SDS011;9924;50.828;6.440;2023-09-07T00:22:40;9.30;;;5.90;;
19554;SDS011;9924;50.828;6.440;2023-09-07T00:25:06;8.32;;;5.88;;
19554;SDS011;9924;50.828;6.440;2023-09-07T00:27:33;8.52;;;5.53;;
19554;SDS011;9924;50.828;6.440;2023-09-07T00:29:59;10.75;;;6.32;;
19554;SDS011;9924;50.828;6.440;2023-09-07T00:32:25;11.80;;;6.35;;
19554;SDS011;9924;50.828;6.440;2023-09-07T00:34:51;7.85;;;5.90;;
19554;SDS011;9924;50.828;6.440;2023-09-07T00:37:17;8.18;;;5.28;;
19554;SDS011;9924;50.828;6.440;2023-09-07T00:39:42;9.70;;;6.00;;
19554;SDS011;9924;50.828;6.440;2023-09-07T00:42:08;10.77;;;5.88;;
19554;SDS011;9924;50.828;6.440;2023-09-07T00:44:34;10.63;;;5.85;;
19554;SDS011;9924;50.828;6.440;2023-09-07T00:46:59;8.55;;;5.85;;
19554;SDS011;9924;50.828;6.440;2023-09-07T00:49:26;7.80;;;5.90;;
19554;SDS011;9924;50.828;6.440;2023-09-07T00:51:52;9.93;;;6.80;;
19554;SDS011;9924;50.828;6.440;2023-09-07T00:54:18;11.18;;;6.22;;
19554;SDS011;9924;50.828;6.440;2023-09-07T00:56:44;9.18;;;5.90;;
19554;SDS011;9924;50.828;6.440;2023-09-07T00:59:11;10.98;;;6.07;;
19554;SDS011;9924;50.828;6.440;2023-09-07T01:01:38;12.30;;;6.82;;
19554;SDS011;9924;50.828;6.440;2023-09-07T01:04:03;7.72;;;5.82;;
19554;SDS011;9924;50.828;6.440;2023-09-07T01:06:30;11.15;;;5.55;;
19554;SDS011;9924;50.828;6.440;2023-09-07T01:09:11;9.10;;;6.20;;
19554;SDS011;9924;50.828;6.440;2023-09-07T01:11:42;10.95;;;5.50;;
19554;SDS011;9924;50.828;6.440;2023-09-07T01:14:08;7.55;;;5.93;;
19554;SDS011;9924;50.828;6.440;2023-09-07T01:16:35;8.77;;;6.40;;
19554;SDS011;9924;50.828;6.440;2023-09-07T01:19:03;8.85;;;6.35;;
19554;SDS011;9924;50.828;6.440;2023-09-07T01:21:35;10.07;;;6.25;;
19554;SDS011;9924;50.828;6.440;2023-09-07T01:24:06;9.48;;;6.68;;
19554;SDS011;9924;50.828;6.440;2023-09-07T01:26:33;9.88;;;6.95;;
19554;SDS011;9924;50.828;6.440;2023-09-07T01:29:00;9.48;;;6.38;;
19554;SDS011;9924;50.828;6.440;2023-09-07T01:31:26;8.40;;;5.75;;
19554;SDS011;9924;50.828;6.440;2023-09-07T01:33:52;8.68;;;6.18;;
19554;SDS011;9924;50.828;6.440;2023-09-07T01:36:17;10.68;;;5.70;;
19554;SDS011;9924;50.828;6.440;2023-09-07T01:38:43;8.93;;;5.72;;
19554;SDS011;9924;50.828;6.440;2023-09-07T01:41:09;8.65;;;6.22;;
19554;SDS011;9924;50.828;6.440;2023-09-07T01:43:35;8.02;;;6.05;;
19554;SDS011;9924;50.828;6.440;2023-09-07T01:46:01;7.32;;;5.40;;
19554;SDS011;9924;50.828;6.440;2023-09-07T01:48:26;9.13;;;5.45;;
19554;SDS011;9924;50.828;6.440;2023-09-07T01:50:52;7.85;;;5.93;;
19554;SDS011;9924;50.828;6.440;2023-09-07T01:53:19;7.22;;;5.35;;
19554;SDS011;9924;50.828;6.440;2023-09-07T01:55:45;9.13;;;5.78;;
19554;SDS011;9924;50.828;6.440;2023-09-07T01:58:10;7.93;;;5.15;;
19554;SDS011;9924;50.828;6.440;2023-09-07T02:00:37;10.07;;;5.95;;
19554;SDS011;9924;50.828;6.440;2023-09-07T02:03:04;8.80;;;5.85;;
19554;SDS011;9924;50.828;6.440;2023-09-07T02:05:30;7.35;;;5.05;;
19554;SDS011;9924;50.828;6.440;2023-09-07T02:07:57;7.93;;;5.60;;
19554;SDS011;9924;50.828;6.440;2023-09-07T02:10:23;8.48;;;5.00;;
19554;SDS011;9924;50.828;6.440;2023-09-07T02:12:49;10.25;;;5.55;;
19554;SDS011;9924;50.828;6.440;2023-09-07T02:15:15;10.10;;;5.60;;
19554;SDS011;9924;50.828;6.440;2023-09-07T02:17:40;6.93;;;5.65;;
19554;SDS011;9924;50.828;6.440;2023-09-07T02:20:10;8.30;;;5.10;;
19554;SDS011;9924;50.828;6.440;2023-09-07T02:22:37;9.65;;;6.15;;
19554;SDS011;9924;50.828;6.440;2023-09-07T02:25:03;7.35;;;5.95;;
19554;SDS011;9924;50.828;6.440;2023-09-07T02:27:30;8.00;;;5.57;;
19554;SDS011;9924;50.828;6.440;2023-09-07T02:30:04;6.25;;;5.15;;
19554;SDS011;9924;50.828;6.440;2023-09-07T02:32:31;7.60;;;5.65;;
19554;SDS011;9924;50.828;6.440;2023-09-07T02:34:57;7.70;;;5.40;;
19554;SDS011;9924;50.828;6.440;2023-09-07T02:37:22;10.50;;;5.93;;
19554;SDS011;9924;50.828;6.440;2023-09-07T02:39:48;10.75;;;5.45;;
19554;SDS011;9924;50.828;6.440;2023-09-07T02:42:14;8.07;;;5.20;;
19554;SDS011;9924;50.828;6.440;2023-09-07T02:44:40;9.70;;;5.28;;
19554;SDS011;9924;50.828;6.440;2023-09-07T02:47:05;8.63;;;5.82;;
19554;SDS011;9924;50.828;6.440;2023-09-07T02:49:31;8.18;;;5.72;;
19554;SDS011;9924;50.828;6.440;2023-09-07T02:51:57;8.20;;;5.43;;
19554;SDS011;9924;50.828;6.440;2023-09-07T02:54:22;8.40;;;5.75;;
19554;SDS011;9924;50.828;6.440;2023-09-07T02:56:49;8.35;;;5.35;;
19554;SDS011;9924;50.828;6.440;2023-09-07T02:59:14;6.80;;;4.90;;
19554;SDS011;9924;50.828;6.440;2023-09-07T03:01:40;8.07;;;5.45;;
19554;SDS011;9924;50.828;6.440;2023-09-07T03:04:06;8.48;;;5.68;;
19554;SDS011;9924;50.828;6.440;2023-09-07T03:06:32;8.13;;;5.50;;
19554;SDS011;9924;50.828;6.440;2023-09-07T03:08:58;8.45;;;5.78;;
19554;SDS011;9924;50.828;6.440;2023-09-07T03:11:24;7.25;;;5.18;;
19554;SDS011;9924;50.828;6.440;2023-09-07T03:13:50;8.75;;;5.47;;
19554;SDS011;9924;50.828;6.440;2023-09-07T03:16:17;7.35;;;5.38;;
19554;SDS011;9924;50.828;6.440;2023-09-07T03:18:43;7.60;;;5.28;;
19554;SDS011;9924;50.828;6.440;2023-09-07T03:21:10;7.47;;;5.20;;
19554;SDS011;9924;50.828;6.440;2023-09-07T03:23:36;9.57;;;6.25;;
19554;SDS011;9924;50.828;6.440;2023-09-07T03:26:01;5.72;;;5.00;;
19554;SDS011;9924;50.828;6.440;2023-09-07T03:28:27;7.53;;;5.43;;
19554;SDS011;9924;50.828;6.440;2023-09-07T03:30:53;8.57;;;6.18;;
19554;SDS011;9924;50.828;6.440;2023-09-07T03:33:20;10.07;;;5.85;;
19554;SDS011;9924;50.828;6.440;2023-09-07T03:35:45;7.93;;;4.90;;
19554;SDS011;9924;50.828;6.440;2023-09-07T03:38:12;8.60;;;6.03;;
19554;SDS011;9924;50.828;6.440;2023-09-07T03:40:38;7.47;;;5.50;;
19554;SDS011;9924;50.828;6.440;2023-09-07T03:43:04;10.02;;;5.53;;
19554;SDS011;9924;50.828;6.440;2023-09-07T03:45:30;9.82;;;5.85;;
19554;SDS011;9924;50.828;6.440;2023-09-07T03:47:55;8.85;;;5.50;;
19554;SDS011;9924;50.828;6.440;2023-09-07T03:50:21;7.53;;;5.20;;
19554;SDS011;9924;50.828;6.440;2023-09-07T03:52:47;8.82;;;5.40;;
19554;SDS011;9924;50.828;6.440;2023-09-07T03:55:13;6.45;;;4.90;;
19554;SDS011;9924;50.828;6.440;2023-09-07T03:57:39;7.25;;;5.30;;
19554;SDS011;9924;50.828;6.440;2023-09-07T04:00:05;9.02;;;6.22;;
19554;SDS011;9924;50.828;6.440;2023-09-07T04:02:33;9.43;;;5.25;;
19554;SDS011;9924;50.828;6.440;2023-09-07T04:04:58;5.55;;;4.68;;
19554;SDS011;9924;50.828;6.440;2023-09-07T04:07:26;7.68;;;5.35;;
19554;SDS011;9924;50.828;6.440;2023-09-07T04:09:52;6.57;;;4.55;;
19554;SDS011;9924;50.828;6.440;2023-09-07T04:12:18;5.78;;;4.63;;
19554;SDS011;9924;50.828;6.440;2023-09-07T04:14:43;7.13;;;4.80;;
19554;SDS011;9924;50.828;6.440;2023-09-07T04:17:09;9.80;;;5.40;;
19554;SDS011;9924;50.828;6.440;2023-09-07T04:19:35;7.50;;;5.22;;
19554;SDS011;9924;50.828;6.440;2023-09-07T04:22:01;6.25;;;4.78;;
19554;SDS011;9924;50.828;6.440;2023-09-07T04:24:27;8.77;;;5.45;;
19554;SDS011;9924;50.828;6.440;2023-09-07T04:26:53;7.20;;;5.75;;
19554;SDS011;9924;50.828;6.440;2023-09-07T04:29:22;8.55;;;5.47;;
19554;SDS011;9924;50.828;6.440;2023-09-07T04:31:49;9.57;;;5.70;;
19554;SDS011;9924;50.828;6.440;2023-09-07T04:34:14;6.72;;;5.50;;
19554;SDS011;9924;50.828;6.440;2023-09-07T04:36:40;8.40;;;5.65;;
19554;SDS011;9924;50.828;6.440;2023-09-07T04:39:06;12.75;;;5.00;;
19554;SDS011;9924;50.828;6.440;2023-09-07T04:41:31;7.30;;;4.82;;
19554;SDS011;9924;50.828;6.440;2023-09-07T04:43:57;6.15;;;4.90;;
19554;SDS011;9924;50.828;6.440;2023-09-07T04:46:23;9.82;;;5.72;;
19554;SDS011;9924;50.828;6.440;2023-09-07T04:48:48;8.35;;;4.80;;
19554;SDS011;9924;50.828;6.440;2023-09-07T04:51:14;8.93;;;5.85;;
19554;SDS011;9924;50.828;6.440;2023-09-07T04:53:40;6.43;;;4.70;;
19554;SDS011;9924;50.828;6.440;2023-09-07T04:56:06;6.13;;;4.88;;
19554;SDS011;9924;50.828;6.440;2023-09-07T04:58:35;6.43;;;5.00;;
19554;SDS011;9924;50.828;6.440;2023-09-07T05:01:02;7.80;;;5.70;;
19554;SDS011;9924;50.828;6.440;2023-09-07T05:03:31;7.28;;;5.15;;
19554;SDS011;9924;50.828;6.440;2023-09-07T05:05:59;6.68;;;5.22;;
19554;SDS011;9924;50.828;6.440;2023-09-07T05:08:25;6.50;;;4.68;;
19554;SDS011;9924;50.828;6.440;2023-09-07T05:11:00;6.22;;;4.88;;
19554;SDS011;9924;50.828;6.440;2023-09-07T05:13:27;9.50;;;5.45;;
19554;SDS011;9924;50.828;6.440;2023-09-07T05:15:54;10.45;;;5.57;;
19554;SDS011;9924;50.828;6.440;2023-09-07T05:18:21;7.13;;;5.30;;
19554;SDS011;9924;50.828;6.440;2023-09-07T05:20:47;10.95;;;4.85;;
19554;SDS011;9924;50.828;6.440;2023-09-07T05:23:15;6.93;;;5.18;;
19554;SDS011;9924;50.828;6.440;2023-09-07T05:25:59;8.60;;;4.60;;
19554;SDS011;9924;50.828;6.440;2023-09-07T05:28:24;8.32;;;4.93;;
19554;SDS011;9924;50.828;6.440;2023-09-07T05:30:50;10.95;;;5.72;;
19554;SDS011;9924;50.828;6.440;2023-09-07T05:33:16;6.50;;;4.75;;
19554;SDS011;9924;50.828;6.440;2023-09-07T05:35:43;7.63;;;5.15;;
19554;SDS011;9924;50.828;6.440;2023-09-07T05:38:10;6.53;;;5.20;;
19554;SDS011;9924;50.828;6.440;2023-09-07T05:40:40;8.98;;;5.22;;
19554;SDS011;9924;50.828;6.440;2023-09-07T05:43:08;6.53;;;4.85;;
19554;SDS011;9924;50.828;6.440;2023-09-07T05:45:34;7.90;;;5.28;;
19554;SDS011;9924;50.828;6.440;2023-09-07T05:48:05;8.82;;;5.53;;
19554;SDS011;9924;50.828;6.440;2023-09-07T05:50:31;8.73;;;5.20;;
19554;SDS011;9924;50.828;6.440;2023-09-07T05:53:01;9.15;;;5.13;;
19554;SDS011;9924;50.828;6.440;2023-09-07T05:55:27;9.02;;;5.05;;
19554;SDS011;9924;50.828;6.440;2023-09-07T05:57:56;7.93;;;5.25;;
19554;SDS011;9924;50.828;6.440;2023-09-07T06:00:22;8.48;;;5.40;;
19554;SDS011;9924;50.828;6.440;2023-09-07T06:02:48;9.15;;;5.63;;
19554;SDS011;9924;50.828;6.440;2023-09-07T06:05:15;7.18;;;5.15;;
19554;SDS011;9924;50.828;6.440;2023-09-07T06:07:41;8.48;;;5.57;;
19554;SDS011;9924;50.828;6.440;2023-09-07T06:10:08;7.55;;;5.43;;
19554;SDS011;9924;50.828;6.440;2023-09-07T06:12:33;10.20;;;5.30;;
19554;SDS011;9924;50.828;6.440;2023-09-07T06:15:00;8.88;;;5.43;;
19554;SDS011;9924;50.828;6.440;2023-09-07T06:17:26;10.38;;;5.97;;
19554;SDS011;9924;50.828;6.440;2023-09-07T06:19:53;9.18;;;5.22;;
19554;SDS011;9924;50.828;6.440;2023-09-07T06:22:19;8.10;;;5.47;;
19554;SDS011;9924;50.828;6.440;2023-09-07T06:24:44;9.18;;;5.00;;
19554;SDS011;9924;50.828;6.440;2023-09-07T06:27:10;7.88;;;5.50;;
19554;SDS011;9924;50.828;6.440;2023-09-07T06:29:36;10.65;;;5.00;;
19554;SDS011;9924;50.828;6.440;2023-09-07T06:32:01;6.50;;;4.88;;
19554;SDS011;9924;50.828;6.440;2023-09-07T06:34:27;12.75;;;5.10;;
19554;SDS011;9924;50.828;6.440;2023-09-07T06:36:53;9.15;;;4.55;;
19554;SDS011;9924;50.828;6.440;2023-09-07T06:39:18;7.75;;;5.03;;
19554;SDS011;9924;50.828;6.440;2023-09-07T06:41:45;6.93;;;4.45;;
19554;SDS011;9924;50.828;6.440;2023-09-07T06:44:11;8.50;;;4.78;;
19554;SDS011;9924;50.828;6.440;2023-09-07T06:46:37;7.22;;;4.38;;
19554;SDS011;9924;50.828;6.440;2023-09-07T06:49:03;8.05;;;4.70;;
19554;SDS011;9924;50.828;6.440;2023-09-07T06:51:30;6.45;;;4.07;;
19554;SDS011;9924;50.828;6.440;2023-09-07T06:53:56;10.38;;;4.80;;
19554;SDS011;9924;50.828;6.440;2023-09-07T06:56:22;7.70;;;4.38;;
19554;SDS011;9924;50.828;6.440;2023-09-07T06:58:48;7.25;;;4.63;;
19554;SDS011;9924;50.828;6.440;2023-09-07T07:01:14;6.55;;;4.70;;
19554;SDS011;9924;50.828;6.440;2023-09-07T07:03:40;5.95;;;4.53;;
19554;SDS011;9924;50.828;6.440;2023-09-07T07:06:06;9.98;;;4.25;;
19554;SDS011;9924;50.828;6.440;2023-09-07T07:08:32;7.20;;;3.70;;
19554;SDS011;9924;50.828;6.440;2023-09-07T07:10:58;5.70;;;3.95;;
19554;SDS011;9924;50.828;6.440;2023-09-07T07:13:23;8.80;;;4.28;;
19554;SDS011;9924;50.828;6.440;2023-09-07T07:15:51;10.27;;;4.55;;
19554;SDS011;9924;50.828;6.440;2023-09-07T07:18:16;5.72;;;4.00;;
19554;SDS011;9924;50.828;6.440;2023-09-07T07:20:42;6.55;;;3.75;;
19554;SDS011;9924;50.828;6.440;2023-09-07T07:23:10;6.05;;;3.95;;
19554;SDS011;9924;50.828;6.440;2023-09-07T07:25:36;6.05;;;3.88;;
19554;SDS011;9924;50.828;6.440;2023-09-07T07:28:05;5.38;;;3.60;;
19554;SDS011;9924;50.828;6.440;2023-09-07T07:30:32;6.45;;;3.50;;
19554;SDS011;9924;50.828;6.440;2023-09-07T07:32:59;6.10;;;3.42;;
19554;SDS011;9924;50.828;6.440;2023-09-07T07:35:26;7.65;;;3.70;;
19554;SDS011;9924;50.828;6.440;2023-09-07T07:37:52;6.55;;;3.90;;
19554;SDS011;9924;50.828;6.440;2023-09-07T07:40:18;7.15;;;3.83;;
19554;SDS011;9924;50.828;6.440;2023-09-07T07:42:45;6.82;;;4.05;;
19554;SDS011;9924;50.828;6.440;2023-09-07T07:45:11;4.35;;;3.65;;
19554;SDS011;9924;50.828;6.440;2023-09-07T07:47:38;4.53;;;3.75;;
19554;SDS011;9924;50.828;6.440;2023-09-07T07:50:04;6.88;;;3.75;;
19554;SDS011;9924;50.828;6.440;2023-09-07T07:52:30;4.95;;;3.47;;
19554;SDS011;9924;50.828;6.440;2023-09-07T07:54:56;7.13;;;3.33;;
19554;SDS011;9924;50.828;6.440;2023-09-07T07:57:21;7.68;;;4.18;;
19554;SDS011;9924;50.828;6.440;2023-09-07T07:59:47;4.38;;;3.25;;
19554;SDS011;9924;50.828;6.440;2023-09-07T08:02:13;6.18;;;3.38;;
19554;SDS011;9924;50.828;6.440;2023-09-07T08:04:38;5.38;;;3.40;;
19554;SDS011;9924;50.828;6.440;2023-09-07T08:07:04;4.47;;;3.60;;
19554;SDS011;9924;50.828;6.440;2023-09-07T08:09:32;8.77;;;3.90;;
19554;SDS011;9924;50.828;6.440;2023-09-07T08:11:57;6.43;;;4.00;;
19554;SDS011;9924;50.828;6.440;2023-09-07T08:14:26;6.50;;;3.13;;
19554;SDS011;9924;50.828;6.440;2023-09-07T08:16:52;3.70;;;3.28;;
19554;SDS011;9924;50.828;6.440;2023-09-07T08:19:18;7.57;;;3.50;;
19554;SDS011;9924;50.828;6.440;2023-09-07T08:21:44;7.68;;;3.42;;
19554;SDS011;9924;50.828;6.440;2023-09-07T08:24:11;5.82;;;3.63;;
19554;SDS011;9924;50.828;6.440;2023-09-07T08:26:37;5.55;;;3.58;;
19554;SDS011;9924;50.828;6.440;2023-09-07T08:29:03;6.82;;;3.50;;
19554;SDS011;9924;50.828;6.440;2023-09-07T08:31:33;5.40;;;3.60;;
19554;SDS011;9924;50.828;6.440;2023-09-07T08:34:00;7.85;;;3.38;;
19554;SDS011;9924;50.828;6.440;2023-09-07T08:36:28;5.93;;;3.40;;
19554;SDS011;9924;50.828;6.440;2023-09-07T08:38:59;5.45;;;3.58;;
19554;SDS011;9924;50.828;6.440;2023-09-07T08:41:39;3.83;;;3.10;;
19554;SDS011;9924;50.828;6.440;2023-09-07T08:44:11;5.95;;;3.25;;
19554;SDS011;9924;50.828;6.440;2023-09-07T08:46:40;6.97;;;3.47;;
19554;SDS011;9924;50.828;6.440;2023-09-07T08:49:06;5.75;;;2.92;;
19554;SDS011;9924;50.828;6.440;2023-09-07T08:51:32;5.97;;;3.40;;
19554;SDS011;9924;50.828;6.440;2023-09-07T08:53:58;5.47;;;3.40;;
19554;SDS011;9924;50.828;6.440;2023-09-07T08:56:24;9.23;;;3.40;;
19554;SDS011;9924;50.828;6.440;2023-09-07T08:58:50;5.78;;;2.95;;
19554;SDS011;9924;50.828;6.440;2023-09-07T09:01:16;8.77;;;3.33;;
19554;SDS011;9924;50.828;6.440;2023-09-07T09:03:46;3.25;;;2.72;;
19554;SDS011;9924;50.828;6.440;2023-09-07T09:06:13;5.28;;;3.20;;
19554;SDS011;9924;50.828;6.440;2023-09-07T09:08:42;4.70;;;3.13;;
19554;SDS011;9924;50.828;6.440;2023-09-07T09:11:15;5.47;;;2.85;;
19554;SDS011;9924;50.828;6.440;2023-09-07T09:13:41;4.97;;;3.38;;
19554;SDS011;9924;50.828;6.440;2023-09-07T09:16:08;5.95;;;3.63;;
19554;SDS011;9924;50.828;6.440;2023-09-07T09:18:35;6.60;;;3.53;;
19554;SDS011;9924;50.828;6.440;2023-09-07T09:21:00;4.20;;;3.10;;
19554;SDS011;9924;50.828;6.440;2023-09-07T09:23:33;5.30;;;3.20;;
19554;SDS011;9924;50.828;6.440;2023-09-07T09:26:00;4.55;;;3.30;;
19554;SDS011;9924;50.828;6.440;2023-09-07T09:28:26;7.22;;;3.47;;
19554;SDS011;9924;50.828;6.440;2023-09-07T09:30:53;6.38;;;3.42;;
19554;SDS011;9924;50.828;6.440;2023-09-07T09:33:20;6.90;;;3.40;;
19554;SDS011;9924;50.828;6.440;2023-09-07T09:35:46;5.90;;;3.45;;
19554;SDS011;9924;50.828;6.440;2023-09-07T09:38:12;3.65;;;3.00;;
19554;SDS011;9924;50.828;6.440;2023-09-07T09:40:38;6.68;;;3.53;;
19554;SDS011;9924;50.828;6.440;2023-09-07T09:43:04;6.47;;;3.17;;
19554;SDS011;9924;50.828;6.440;2023-09-07T09:45:31;4.43;;;2.90;;
19554;SDS011;9924;50.828;6.440;2023-09-07T09:47:58;3.83;;;3.13;;
19554;SDS011;9924;50.828;6.440;2023-09-07T09:50:28;3.33;;;2.95;;
19554;SDS011;9924;50.828;6.440;2023-09-07T09:52:54;8.57;;;3.17;;
19554;SDS011;9924;50.828;6.440;2023-09-07T09:55:21;6.95;;;3.08;;
19554;SDS011;9924;50.828;6.440;2023-09-07T09:57:48;5.47;;;3.03;;
19554;SDS011;9924;50.828;6.440;2023-09-07T10:00:15;5.68;;;3.30;;
19554;SDS011;9924;50.828;6.440;2023-09-07T10:02:48;3.42;;;2.95;;
19554;SDS011;9924;50.828;6.440;2023-09-07T10:05:17;9.10;;;3.20;;
19554;SDS011;9924;50.828;6.440;2023-09-07T10:07:44;5.68;;;3.35;;
19554;SDS011;9924;50.828;6.440;2023-09-07T10:10:13;5.55;;;3.17;;
19554;SDS011;9924;50.828;6.440;2023-09-07T10:12:43;3.67;;;2.88;;
19554;SDS011;9924;50.828;6.440;2023-09-07T10:15:24;3.78;;;3.30;;
19554;SDS011;9924;50.828;6.440;2023-09-07T10:18:02;5.22;;;3.20;;
19554;SDS011;9924;50.828;6.440;2023-09-07T10:23:21;5.32;;;3.53;;
19554;SDS011;9924;50.828;6.440;2023-09-07T10:25:51;4.82;;;3.30;;
19554;SDS011;9924;50.828;6.440;2023-09-07T10:28:19;3.42;;;2.88;;
19554;SDS011;9924;50.828;6.440;2023-09-07T10:30:45;3.95;;;3.35;;
19554;SDS011;9924;50.828;6.440;2023-09-07T10:33:22;4.05;;;2.80;;
19554;SDS011;9924;50.828;6.440;2023-09-07T10:35:47;6.70;;;3.42;;
19554;SDS011;9924;50.828;6.440;2023-09-07T10:38:13;6.00;;;3.10;;
19554;SDS011;9924;50.828;6.440;2023-09-07T10:40:41;6.78;;;3.05;;
19554;SDS011;9924;50.828;6.440;2023-09-07T10:43:13;3.83;;;2.65;;
19554;SDS011;9924;50.828;6.440;2023-09-07T10:45:38;6.45;;;2.90;;
19554;SDS011;9924;50.828;6.440;2023-09-07T10:48:05;7.32;;;3.28;;
19554;SDS011;9924;50.828;6.440;2023-09-07T10:50:41;5.28;;;3.40;;
19554;SDS011;9924;50.828;6.440;2023-09-07T10:53:08;4.30;;;2.90;;
19554;SDS011;9924;50.828;6.440;2023-09-07T10:55:37;3.28;;;2.95;;
19554;SDS011;9924;50.828;6.440;2023-09-07T10:58:06;3.50;;;2.75;;
19554;SDS011;9924;50.828;6.440;2023-09-07T11:00:34;6.53;;;3.10;;
19554;SDS011;9924;50.828;6.440;2023-09-07T11:03:06;3.78;;;2.47;;
19554;SDS011;9924;50.828;6.440;2023-09-07T11:05:35;3.38;;;2.80;;
19554;SDS011;9924;50.828;6.440;2023-09-07T11:08:06;3.05;;;2.75;;
19554;SDS011;9924;50.828;6.440;2023-09-07T11:10:36;6.30;;;2.80;;
19554;SDS011;9924;50.828;6.440;2023-09-07T11:13:03;3.83;;;3.10;;
19554;SDS011;9924;50.828;6.440;2023-09-07T11:15:30;6.00;;;2.80;;
19554;SDS011;9924;50.828;6.440;2023-09-07T11:17:57;4.78;;;2.97;;
19554;SDS011;9924;50.828;6.440;2023-09-07T11:20:23;6.85;;;2.90;;
19554;SDS011;9924;50.828;6.440;2023-09-07T11:22:49;5.47;;;2.88;;
19554;SDS011;9924;50.828;6.440;2023-09-07T11:25:15;5.30;;;3.15;;
19554;SDS011;9924;50.828;6.440;2023-09-07T11:27:41;6.32;;;3.20;;
19554;SDS011;9924;50.828;6.440;2023-09-07T11:30:07;3.10;;;2.80;;
19554;SDS011;9924;50.828;6.440;2023-09-07T11:32:36;4.68;;;2.50;;
19554;SDS011;9924;50.828;6.440;2023-09-07T11:35:02;3.17;;;2.63;;
19554;SDS011;9924;50.828;6.440;2023-09-07T11:37:32;5.43;;;3.22;;
19554;SDS011;9924;50.828;6.440;2023-09-07T11:39:58;3.70;;;3.13;;
19554;SDS011;9924;50.828;6.440;2023-09-07T11:42:24;4.15;;;3.05;;
19554;SDS011;9924;50.828;6.440;2023-09-07T11:44:50;6.10;;;2.72;;
19554;SDS011;9924;50.828;6.440;2023-09-07T11:47:16;6.38;;;3.40;;
19554;SDS011;9924;50.828;6.440;2023-09-07T11:49:41;4.30;;;2.97;;
19554;SDS011;9924;50.828;6.440;2023-09-07T11:52:07;3.05;;;2.75;;
19554;SDS011;9924;50.828;6.440;2023-09-07T11:54:33;5.70;;;2.80;;
19554;SDS011;9924;50.828;6.440;2023-09-07T11:56:59;7.22;;;3.15;;
19554;SDS011;9924;50.828;6.440;2023-09-07T11:59:24;4.95;;;3.22;;
19554;SDS011;9924;50.828;6.440;2023-09-07T12:01:50;8.13;;;2.90;;
19554;SDS011;9924;50.828;6.440;2023-09-07T12:04:16;3.55;;;2.75;;
19554;SDS011;9924;50.828;6.440;2023-09-07T12:06:42;6.25;;;3.00;;
19554;SDS011;9924;50.828;6.440;2023-09-07T12:09:08;8.05;;;3.13;;
19554;SDS011;9924;50.828;6.440;2023-09-07T12:11:36;5.75;;;2.90;;
19554;SDS011;9924;50.828;6.440;2023-09-07T12:14:03;5.35;;;3.30;;
19554;SDS011;9924;50.828;6.440;2023-09-07T12:16:30;8.02;;;3.20;;
19554;SDS011;9924;50.828;6.440;2023-09-07T12:18:56;6.10;;;3.00;;
19554;SDS011;9924;50.828;6.440;2023-09-07T12:21:21;4.35;;;3.10;;
19554;SDS011;9924;50.828;6.440;2023-09-07T12:23:47;3.60;;;2.75;;
19554;SDS011;9924;50.828;6.440;2023-09-07T12:26:13;8.35;;;3.38;;
19554;SDS011;9924;50.828;6.440;2023-09-07T12:28:42;6.63;;;3.17;;
19554;SDS011;9924;50.828;6.440;2023-09-07T12:31:07;4.25;;;2.85;;
19554;SDS011;9924;50.828;6.440;2023-09-07T12:33:33;3.47;;;2.92;;
19554;SDS011;9924;50.828;6.440;2023-09-07T12:35:59;5.22;;;2.90;;
19554;SDS011;9924;50.828;6.440;2023-09-07T12:38:25;5.35;;;3.00;;
19554;SDS011;9924;50.828;6.440;2023-09-07T12:40:53;6.13;;;3.50;;
19554;SDS011;9924;50.828;6.440;2023-09-07T12:43:19;4.82;;;2.90;;
19554;SDS011;9924;50.828;6.440;2023-09-07T12:45:45;8.10;;;3.30;;
19554;SDS011;9924;50.828;6.440;2023-09-07T12:48:11;7.57;;;3.17;;
19554;SDS011;9924;50.828;6.440;2023-09-07T12:50:37;7.28;;;3.30;;
19554;SDS011;9924;50.828;6.440;2023-09-07T12:53:05;5.75;;;3.28;;
19554;SDS011;9924;50.828;6.440;2023-09-07T12:55:31;4.85;;;3.33;;
19554;SDS011;9924;50.828;6.440;2023-09-07T12:57:58;8.25;;;3.20;;
19554;SDS011;9924;50.828;6.440;2023-09-07T13:00:27;6.15;;;3.30;;
19554;SDS011;9924;50.828;6.440;2023-09-07T13:02:54;3.05;;;2.70;;
19554;SDS011;9924;50.828;6.440;2023-09-07T13:05:20;4.35;;;2.97;;
19554;SDS011;9924;50.828;6.440;2023-09-07T13:07:45;7.20;;;2.92;;
19554;SDS011;9924;50.828;6.440;2023-09-07T13:10:11;5.05;;;3.03;;
19554;SDS011;9924;50.828;6.440;2023-09-07T13:12:37;4.32;;;3.13;;
19554;SDS011;9924;50.828;6.440;2023-09-07T13:15:05;5.22;;;3.00;;
19554;SDS011;9924;50.828;6.440;2023-09-07T13:17:32;5.68;;;2.90;;
19554;SDS011;9924;50.828;6.440;2023-09-07T13:19:57;5.82;;;3.38;;
19554;SDS011;9924;50.828;6.440;2023-09-07T13:22:23;4.43;;;3.05;;
19554;SDS011;9924;50.828;6.440;2023-09-07T13:24:49;5.10;;;3.17;;
19554;SDS011;9924;50.828;6.440;2023-09-07T13:27:15;5.55;;;2.92;;
19554;SDS011;9924;50.828;6.440;2023-09-07T13:29:41;4.90;;;3.00;;
19554;SDS011;9924;50.828;6.440;2023-09-07T13:32:06;5.65;;;3.30;;
19554;SDS011;9924;50.828;6.440;2023-09-07T13:34:32;3.97;;;3.40;;
19554;SDS011;9924;50.828;6.440;2023-09-07T13:36:58;5.28;;;2.95;;
19554;SDS011;9924;50.828;6.440;2023-09-07T13:39:24;6.28;;;3.13;;
19554;SDS011;9924;50.828;6.440;2023-09-07T13:41:49;7.50;;;3.80;;
19554;SDS011;9924;50.828;6.440;2023-09-07T13:44:15;6.07;;;2.97;;
19554;SDS011;9924;50.828;6.440;2023-09-07T13:46:42;5.25;;;3.08;;
19554;SDS011;9924;50.828;6.440;2023-09-07T13:49:09;6.30;;;3.10;;
19554;SDS011;9924;50.828;6.440;2023-09-07T13:51:35;7.07;;;3.28;;
19554;SDS011;9924;50.828;6.440;2023-09-07T13:54:07;4.95;;;3.08;;
19554;SDS011;9924;50.828;6.440;2023-09-07T13:56:33;4.05;;;3.13;;
19554;SDS011;9924;50.828;6.440;2023-09-07T13:59:01;7.00;;;2.75;;
19554;SDS011;9924;50.828;6.440;2023-09-07T14:01:26;4.18;;;3.10;;
19554;SDS011;9924;50.828;6.440;2023-09-07T14:03:52;5.05;;;2.90;;
19554;SDS011;9924;50.828;6.440;2023-09-07T14:06:18;8.20;;;3.55;;
19554;SDS011;9924;50.828;6.440;2023-09-07T14:08:47;7.35;;;3.20;;
19554;SDS011;9924;50.828;6.440;2023-09-07T14:11:13;4.70;;;2.85;;
19554;SDS011;9924;50.828;6.440;2023-09-07T14:13:39;5.65;;;3.42;;
19554;SDS011;9924;50.828;6.440;2023-09-07T14:16:05;4.35;;;3.42;;
19554;SDS011;9924;50.828;6.440;2023-09-07T14:18:31;6.07;;;3.40;;
19554;SDS011;9924;50.828;6.440;2023-09-07T14:20:56;4.45;;;3.13;;
19554;SDS011;9924;50.828;6.440;2023-09-07T14:23:27;4.88;;;3.15;;
19554;SDS011;9924;50.828;6.440;2023-09-07T14:25:53;7.20;;;3.33;;
19554;SDS011;9924;50.828;6.440;2023-09-07T14:28:19;6.97;;;3.40;;
19554;SDS011;9924;50.828;6.440;2023-09-07T14:30:45;5.75;;;3.33;;
19554;SDS011;9924;50.828;6.440;2023-09-07T14:33:11;6.53;;;3.25;;
19554;SDS011;9924;50.828;6.440;2023-09-07T14:35:37;6.55;;;3.22;;
19554;SDS011;9924;50.828;6.440;2023-09-07T14:38:02;4.57;;;3.15;;
19554;SDS011;9924;50.828;6.440;2023-09-07T14:40:28;6.00;;;3.83;;
19554;SDS011;9924;50.828;6.440;2023-09-07T14:42:54;5.68;;;3.40;;
19554;SDS011;9924;50.828;6.440;2023-09-07T14:45:22;7.32;;;3.00;;
19554;SDS011;9924;50.828;6.440;2023-09-07T14:47:49;5.80;;;3.78;;
19554;SDS011;9924;50.828;6.440;2023-09-07T14:50:15;5.40;;;3.47;;
19554;SDS011;9924;50.828;6.440;2023-09-07T14:52:41;7.57;;;3.75;;
19554;SDS011;9924;50.828;6.440;2023-09-07T14:55:09;5.05;;;3.30;;
19554;SDS011;9924;50.828;6.440;2023-09-07T14:57:35;5.05;;;3.55;;
19554;SDS011;9924;50.828;6.440;2023-09-07T15:00:00;5.05;;;3.25;;